sensor_id;sensor_type;location;lat;lon;timestamp;temperature;humidity
44433;DHT22;30136;50.600;4.608;2022-07-10T00:00:50;27.80;62.00
44433;DHT22;30136;50.600;4.608;2022-07-10T00:01:51;28.10;62.00
44433;DHT22;30136;50.600;4.608;2022-07-10T00:02:52;28.10;62.10
44433;DHT22;30136;50.600;4.608;2022-07-10T00:03:53;27.90;61.90
44433;DHT22;30136;50.600;4.608;2022-07-10T00:04:55;28.30;62.30
44433;DHT22;30136;50.600;4.608;2022-07-10T00:05:55;27.80;62.00
44433;DHT22;30136;50.600;4.608;2022-07-10T00:06:57;27.50;61.50
44433;DHT22;30136;50.600;4.608;2022-07-10T00:07:58;27.60;61.70
44433;DHT22;30136;50.600;4.608;2022-07-10T00:08:59;27.50;61.20
44433;DHT22;30136;50.600;4.608;2022-07-10T00:10:01;28.00;61.00
44433;DHT22;30136;50.600;4.608;2022-07-10T00:11:02;27.50;60.60
44433;DHT22;30136;50.600;4.608;2022-07-10T00:12:03;27.80;60.70
44433;DHT22;30136;50.600;4.608;2022-07-10T00:13:05;27.30;60.30
44433;DHT22;30136;50.600;4.608;2022-07-10T00:14:06;27.60;60.40
44433;DHT22;30136;50.600;4.608;2022-07-10T00:15:08;27.70;60.50
44433;DHT22;30136;50.600;4.608;2022-07-10T00:16:10;28.40;60.70
44433;DHT22;30136;50.600;4.608;2022-07-10T00:17:10;28.10;60.60
44433;DHT22;30136;50.600;4.608;2022-07-10T00:18:11;27.40;60.40
44433;DHT22;30136;50.600;4.608;2022-07-10T00:19:12;27.90;59.90
44433;DHT22;30136;50.600;4.608;2022-07-10T00:20:14;28.50;60.70
44433;DHT22;30136;50.600;4.608;2022-07-10T00:21:14;27.50;60.40
44433;DHT22;30136;50.600;4.608;2022-07-10T00:22:16;27.50;60.40
44433;DHT22;30136;50.600;4.608;2022-07-10T00:23:17;27.60;60.20
44433;DHT22;30136;50.600;4.608;2022-07-10T00:24:18;27.90;60.60
44433;DHT22;30136;50.600;4.608;2022-07-10T00:25:19;27.80;60.30
44433;DHT22;30136;50.600;4.608;2022-07-10T00:26:19;27.90;60.90
44433;DHT22;30136;50.600;4.608;2022-07-10T00:27:20;28.30;61.20
44433;DHT22;30136;50.600;4.608;2022-07-10T00:28:21;27.80;60.70
44433;DHT22;30136;50.600;4.608;2022-07-10T00:29:23;27.50;59.70
44433;DHT22;30136;50.600;4.608;2022-07-10T00:30:24;28.10;60.60
44433;DHT22;30136;50.600;4.608;2022-07-10T00:31:25;28.30;60.60
44433;DHT22;30136;50.600;4.608;2022-07-10T00:32:26;27.50;60.00
44433;DHT22;30136;50.600;4.608;2022-07-10T00:33:27;27.90;60.30
44433;DHT22;30136;50.600;4.608;2022-07-10T00:34:28;27.40;60.20
44433;DHT22;30136;50.600;4.608;2022-07-10T00:35:29;27.90;60.80
44433;DHT22;30136;50.600;4.608;2022-07-10T00:36:30;27.90;60.90
44433;DHT22;30136;50.600;4.608;2022-07-10T00:37:31;27.60;60.70
44433;DHT22;30136;50.600;4.608;2022-07-10T00:38:32;27.70;60.80
44433;DHT22;30136;50.600;4.608;2022-07-10T00:39:33;27.40;60.60
44433;DHT22;30136;50.600;4.608;2022-07-10T00:40:34;27.50;60.70
44433;DHT22;30136;50.600;4.608;2022-07-10T00:41:35;27.30;60.60
44433;DHT22;30136;50.600;4.608;2022-07-10T00:42:35;27.90;61.00
44433;DHT22;30136;50.600;4.608;2022-07-10T00:43:57;27.60;61.00
44433;DHT22;30136;50.600;4.608;2022-07-10T00:44:59;27.50;60.80
44433;DHT22;30136;50.600;4.608;2022-07-10T00:46:00;27.60;61.80
44433;DHT22;30136;50.600;4.608;2022-07-10T00:47:02;28.20;61.50
44433;DHT22;30136;50.600;4.608;2022-07-10T00:48:04;28.00;61.30
44433;DHT22;30136;50.600;4.608;2022-07-10T00:49:05;28.30;61.70
44433;DHT22;30136;50.600;4.608;2022-07-10T00:50:06;27.50;60.90
44433;DHT22;30136;50.600;4.608;2022-07-10T00:51:07;28.40;61.50
44433;DHT22;30136;50.600;4.608;2022-07-10T00:52:12;27.40;60.70
44433;DHT22;30136;50.600;4.608;2022-07-10T00:53:14;28.00;61.00
44433;DHT22;30136;50.600;4.608;2022-07-10T00:54:16;27.40;60.20
44433;DHT22;30136;50.600;4.608;2022-07-10T00:55:17;27.40;60.70
44433;DHT22;30136;50.600;4.608;2022-07-10T00:56:20;27.70;61.00
44433;DHT22;30136;50.600;4.608;2022-07-10T00:57:23;27.40;60.70
44433;DHT22;30136;50.600;4.608;2022-07-10T00:58:24;27.30;60.40
44433;DHT22;30136;50.600;4.608;2022-07-10T00:59:26;27.60;60.60
44433;DHT22;30136;50.600;4.608;2022-07-10T01:00:27;28.00;61.10
44433;DHT22;30136;50.600;4.608;2022-07-10T01:01:28;28.20;61.10
44433;DHT22;30136;50.600;4.608;2022-07-10T01:02:29;28.00;61.20
44433;DHT22;30136;50.600;4.608;2022-07-10T01:03:30;28.40;61.50
44433;DHT22;30136;50.600;4.608;2022-07-10T01:04:31;27.40;60.70
44433;DHT22;30136;50.600;4.608;2022-07-10T01:05:32;27.90;60.80
44433;DHT22;30136;50.600;4.608;2022-07-10T01:06:33;27.90;60.80
44433;DHT22;30136;50.600;4.608;2022-07-10T01:07:34;27.80;60.80
44433;DHT22;30136;50.600;4.608;2022-07-10T01:08:35;27.30;60.30
44433;DHT22;30136;50.600;4.608;2022-07-10T01:09:36;27.60;60.60
44433;DHT22;30136;50.600;4.608;2022-07-10T01:10:38;27.80;60.30
44433;DHT22;30136;50.600;4.608;2022-07-10T01:11:40;27.30;59.70
44433;DHT22;30136;50.600;4.608;2022-07-10T01:12:41;27.90;59.30
44433;DHT22;30136;50.600;4.608;2022-07-10T01:13:43;27.60;59.90
44433;DHT22;30136;50.600;4.608;2022-07-10T01:14:44;27.80;60.30
44433;DHT22;30136;50.600;4.608;2022-07-10T01:15:46;28.20;60.50
44433;DHT22;30136;50.600;4.608;2022-07-10T01:16:47;27.90;60.20
44433;DHT22;30136;50.600;4.608;2022-07-10T01:17:48;27.80;60.10
44433;DHT22;30136;50.600;4.608;2022-07-10T01:18:50;27.80;60.00
44433;DHT22;30136;50.600;4.608;2022-07-10T01:19:50;27.30;59.70
44433;DHT22;30136;50.600;4.608;2022-07-10T01:20:52;27.60;60.00
44433;DHT22;30136;50.600;4.608;2022-07-10T01:21:54;27.90;60.10
44433;DHT22;30136;50.600;4.608;2022-07-10T01:22:55;27.80;60.20
44433;DHT22;30136;50.600;4.608;2022-07-10T01:23:57;28.20;60.60
44433;DHT22;30136;50.600;4.608;2022-07-10T01:24:58;27.80;60.00
44433;DHT22;30136;50.600;4.608;2022-07-10T01:25:59;27.30;59.80
44433;DHT22;30136;50.600;4.608;2022-07-10T01:27:01;27.40;59.80
44433;DHT22;30136;50.600;4.608;2022-07-10T01:28:02;27.50;60.00
44433;DHT22;30136;50.600;4.608;2022-07-10T01:29:05;27.50;59.90
44433;DHT22;30136;50.600;4.608;2022-07-10T01:30:07;27.80;60.00
44433;DHT22;30136;50.600;4.608;2022-07-10T01:31:09;27.20;59.60
44433;DHT22;30136;50.600;4.608;2022-07-10T01:32:09;27.90;60.30
44433;DHT22;30136;50.600;4.608;2022-07-10T01:33:10;27.30;59.90
44433;DHT22;30136;50.600;4.608;2022-07-10T01:34:11;27.30;59.70
44433;DHT22;30136;50.600;4.608;2022-07-10T01:35:13;27.20;59.70
44433;DHT22;30136;50.600;4.608;2022-07-10T01:36:14;27.70;59.80
44433;DHT22;30136;50.600;4.608;2022-07-10T01:37:15;27.20;59.20
44433;DHT22;30136;50.600;4.608;2022-07-10T01:38:16;27.70;59.90
44433;DHT22;30136;50.600;4.608;2022-07-10T01:39:16;27.20;59.50
44433;DHT22;30136;50.600;4.608;2022-07-10T01:40:17;27.10;59.00
44433;DHT22;30136;50.600;4.608;2022-07-10T01:41:18;27.20;58.90
44433;DHT22;30136;50.600;4.608;2022-07-10T01:42:19;28.30;59.80
44433;DHT22;30136;50.600;4.608;2022-07-10T01:43:20;27.10;59.20
44433;DHT22;30136;50.600;4.608;2022-07-10T01:44:21;27.70;59.70
44433;DHT22;30136;50.600;4.608;2022-07-10T01:45:21;27.90;59.90
44433;DHT22;30136;50.600;4.608;2022-07-10T01:46:22;27.70;59.60
44433;DHT22;30136;50.600;4.608;2022-07-10T01:47:24;27.70;59.60
44433;DHT22;30136;50.600;4.608;2022-07-10T01:48:26;27.30;59.20
44433;DHT22;30136;50.600;4.608;2022-07-10T01:49:27;27.30;59.30
44433;DHT22;30136;50.600;4.608;2022-07-10T01:50:28;28.20;60.00
44433;DHT22;30136;50.600;4.608;2022-07-10T01:51:29;27.70;59.70
44433;DHT22;30136;50.600;4.608;2022-07-10T01:52:29;27.30;59.60
44433;DHT22;30136;50.600;4.608;2022-07-10T01:53:30;27.20;59.40
44433;DHT22;30136;50.600;4.608;2022-07-10T01:54:31;27.70;60.50
44433;DHT22;30136;50.600;4.608;2022-07-10T01:55:33;27.20;59.20
44433;DHT22;30136;50.600;4.608;2022-07-10T01:56:34;27.10;59.20
44433;DHT22;30136;50.600;4.608;2022-07-10T01:57:35;27.80;59.60
44433;DHT22;30136;50.600;4.608;2022-07-10T01:58:37;27.30;59.50
44433;DHT22;30136;50.600;4.608;2022-07-10T01:59:38;27.70;59.90
44433;DHT22;30136;50.600;4.608;2022-07-10T02:00:38;27.70;59.90
44433;DHT22;30136;50.600;4.608;2022-07-10T02:01:39;27.20;59.50
44433;DHT22;30136;50.600;4.608;2022-07-10T02:02:40;27.30;59.70
44433;DHT22;30136;50.600;4.608;2022-07-10T02:03:41;28.00;60.10
44433;DHT22;30136;50.600;4.608;2022-07-10T02:05:00;27.10;59.40
44433;DHT22;30136;50.600;4.608;2022-07-10T02:06:01;27.70;59.70
44433;DHT22;30136;50.600;4.608;2022-07-10T02:07:02;27.60;59.70
44433;DHT22;30136;50.600;4.608;2022-07-10T02:08:04;27.20;59.30
44433;DHT22;30136;50.600;4.608;2022-07-10T02:09:06;27.80;59.60
44433;DHT22;30136;50.600;4.608;2022-07-10T02:10:07;28.20;60.00
44433;DHT22;30136;50.600;4.608;2022-07-10T02:11:08;28.10;59.90
44433;DHT22;30136;50.600;4.608;2022-07-10T02:12:10;28.20;59.90
44433;DHT22;30136;50.600;4.608;2022-07-10T02:13:13;27.70;59.60
44433;DHT22;30136;50.600;4.608;2022-07-10T02:14:15;27.20;59.30
44433;DHT22;30136;50.600;4.608;2022-07-10T02:15:16;27.50;59.20
44433;DHT22;30136;50.600;4.608;2022-07-10T02:16:16;27.30;59.00
44433;DHT22;30136;50.600;4.608;2022-07-10T02:17:17;27.10;58.80
44433;DHT22;30136;50.600;4.608;2022-07-10T02:18:18;27.80;59.30
44433;DHT22;30136;50.600;4.608;2022-07-10T02:19:19;27.70;59.20
44433;DHT22;30136;50.600;4.608;2022-07-10T02:20:20;27.50;59.00
44433;DHT22;30136;50.600;4.608;2022-07-10T02:21:20;27.20;59.30
44433;DHT22;30136;50.600;4.608;2022-07-10T02:22:21;27.20;59.40
44433;DHT22;30136;50.600;4.608;2022-07-10T02:23:22;27.10;59.40
44433;DHT22;30136;50.600;4.608;2022-07-10T02:24:23;27.30;59.50
44433;DHT22;30136;50.600;4.608;2022-07-10T02:25:24;27.10;59.40
44433;DHT22;30136;50.600;4.608;2022-07-10T02:26:25;27.30;59.60
44433;DHT22;30136;50.600;4.608;2022-07-10T02:27:25;27.60;59.70
44433;DHT22;30136;50.600;4.608;2022-07-10T02:28:27;28.30;60.20
44433;DHT22;30136;50.600;4.608;2022-07-10T02:29:28;27.30;59.30
44433;DHT22;30136;50.600;4.608;2022-07-10T02:30:29;27.20;59.40
44433;DHT22;30136;50.600;4.608;2022-07-10T02:31:29;27.30;59.40
44433;DHT22;30136;50.600;4.608;2022-07-10T02:32:30;27.60;59.50
44433;DHT22;30136;50.600;4.608;2022-07-10T02:33:31;27.70;59.70
44433;DHT22;30136;50.600;4.608;2022-07-10T02:34:32;27.60;59.60
44433;DHT22;30136;50.600;4.608;2022-07-10T02:35:33;28.10;60.00
44433;DHT22;30136;50.600;4.608;2022-07-10T02:36:34;27.60;59.60
44433;DHT22;30136;50.600;4.608;2022-07-10T02:37:35;27.20;59.20
44433;DHT22;30136;50.600;4.608;2022-07-10T02:38:36;27.10;59.10
44433;DHT22;30136;50.600;4.608;2022-07-10T02:39:37;27.70;59.70
44433;DHT22;30136;50.600;4.608;2022-07-10T02:40:38;27.10;59.20
44433;DHT22;30136;50.600;4.608;2022-07-10T02:41:39;27.70;59.60
44433;DHT22;30136;50.600;4.608;2022-07-10T02:42:41;27.70;59.50
44433;DHT22;30136;50.600;4.608;2022-07-10T02:43:42;27.70;59.50
44433;DHT22;30136;50.600;4.608;2022-07-10T02:44:43;27.60;59.50
44433;DHT22;30136;50.600;4.608;2022-07-10T02:45:44;28.20;59.80
44433;DHT22;30136;50.600;4.608;2022-07-10T02:46:45;27.60;59.30
44433;DHT22;30136;50.600;4.608;2022-07-10T02:47:46;27.20;59.20
44433;DHT22;30136;50.600;4.608;2022-07-10T02:48:46;27.20;59.20
44433;DHT22;30136;50.600;4.608;2022-07-10T02:49:47;27.20;59.10
44433;DHT22;30136;50.600;4.608;2022-07-10T02:50:48;27.20;59.10
44433;DHT22;30136;50.600;4.608;2022-07-10T02:51:49;28.10;59.60
44433;DHT22;30136;50.600;4.608;2022-07-10T02:52:51;27.20;59.10
44433;DHT22;30136;50.600;4.608;2022-07-10T02:53:51;27.10;59.10
44433;DHT22;30136;50.600;4.608;2022-07-10T02:54:52;27.60;59.30
44433;DHT22;30136;50.600;4.608;2022-07-10T02:55:53;28.10;59.60
44433;DHT22;30136;50.600;4.608;2022-07-10T02:56:54;27.00;58.80
44433;DHT22;30136;50.600;4.608;2022-07-10T02:57:55;27.60;59.20
44433;DHT22;30136;50.600;4.608;2022-07-10T02:58:56;27.30;59.50
44433;DHT22;30136;50.600;4.608;2022-07-10T02:59:57;27.10;58.70
44433;DHT22;30136;50.600;4.608;2022-07-10T03:00:58;27.20;59.00
44433;DHT22;30136;50.600;4.608;2022-07-10T03:01:58;27.10;58.70
44433;DHT22;30136;50.600;4.608;2022-07-10T03:02:59;27.10;58.80
44433;DHT22;30136;50.600;4.608;2022-07-10T03:04:00;27.70;59.30
44433;DHT22;30136;50.600;4.608;2022-07-10T03:05:01;27.00;58.80
44433;DHT22;30136;50.600;4.608;2022-07-10T03:06:02;27.60;59.30
44433;DHT22;30136;50.600;4.608;2022-07-10T03:07:04;27.50;59.00
44433;DHT22;30136;50.600;4.608;2022-07-10T03:08:05;27.00;58.60
44433;DHT22;30136;50.600;4.608;2022-07-10T03:09:05;27.60;59.10
44433;DHT22;30136;50.600;4.608;2022-07-10T03:10:07;28.00;59.40
44433;DHT22;30136;50.600;4.608;2022-07-10T03:11:09;26.90;58.50
44433;DHT22;30136;50.600;4.608;2022-07-10T03:12:10;27.30;58.80
44433;DHT22;30136;50.600;4.608;2022-07-10T03:13:11;27.90;59.30
44433;DHT22;30136;50.600;4.608;2022-07-10T03:14:12;27.00;58.80
44433;DHT22;30136;50.600;4.608;2022-07-10T03:15:13;27.50;58.90
44433;DHT22;30136;50.600;4.608;2022-07-10T03:16:14;28.00;59.20
44433;DHT22;30136;50.600;4.608;2022-07-10T03:17:15;27.10;58.60
44433;DHT22;30136;50.600;4.608;2022-07-10T03:18:15;27.00;58.50
44433;DHT22;30136;50.600;4.608;2022-07-10T03:19:17;27.50;58.70
44433;DHT22;30136;50.600;4.608;2022-07-10T03:20:18;27.70;58.80
44433;DHT22;30136;50.600;4.608;2022-07-10T03:21:18;27.30;58.60
44433;DHT22;30136;50.600;4.608;2022-07-10T03:22:19;26.90;58.30
44433;DHT22;30136;50.600;4.608;2022-07-10T03:23:20;26.90;58.30
44433;DHT22;30136;50.600;4.608;2022-07-10T03:24:21;27.60;58.80
44433;DHT22;30136;50.600;4.608;2022-07-10T03:25:22;27.50;58.60
44433;DHT22;30136;50.600;4.608;2022-07-10T03:26:23;27.00;58.30
44433;DHT22;30136;50.600;4.608;2022-07-10T03:27:24;27.50;58.60
44433;DHT22;30136;50.600;4.608;2022-07-10T03:28:25;27.00;58.00
44433;DHT22;30136;50.600;4.608;2022-07-10T03:29:26;27.10;58.20
44433;DHT22;30136;50.600;4.608;2022-07-10T03:30:27;27.40;58.40
44433;DHT22;30136;50.600;4.608;2022-07-10T03:31:27;27.50;58.40
44433;DHT22;30136;50.600;4.608;2022-07-10T03:32:28;26.80;57.10
44433;DHT22;30136;50.600;4.608;2022-07-10T03:33:29;27.20;57.70
44433;DHT22;30136;50.600;4.608;2022-07-10T03:34:30;27.20;58.10
44433;DHT22;30136;50.600;4.608;2022-07-10T03:35:33;27.10;58.50
44433;DHT22;30136;50.600;4.608;2022-07-10T03:36:34;26.80;58.50
44433;DHT22;30136;50.600;4.608;2022-07-10T03:37:34;26.80;58.40
44433;DHT22;30136;50.600;4.608;2022-07-10T03:38:35;27.50;58.90
44433;DHT22;30136;50.600;4.608;2022-07-10T03:39:36;27.40;58.90
44433;DHT22;30136;50.600;4.608;2022-07-10T03:40:37;27.70;58.90
44433;DHT22;30136;50.600;4.608;2022-07-10T03:41:38;27.20;58.50
44433;DHT22;30136;50.600;4.608;2022-07-10T03:42:39;27.10;58.50
44433;DHT22;30136;50.600;4.608;2022-07-10T03:43:39;27.80;58.90
44433;DHT22;30136;50.600;4.608;2022-07-10T03:44:40;27.40;58.70
44433;DHT22;30136;50.600;4.608;2022-07-10T03:45:41;27.50;58.70
44433;DHT22;30136;50.600;4.608;2022-07-10T03:46:42;27.40;58.60
44433;DHT22;30136;50.600;4.608;2022-07-10T03:47:43;27.40;58.60
44433;DHT22;30136;50.600;4.608;2022-07-10T03:48:43;27.00;59.00
44433;DHT22;30136;50.600;4.608;2022-07-10T03:49:44;27.00;58.40
44433;DHT22;30136;50.600;4.608;2022-07-10T03:50:45;27.10;58.40
44433;DHT22;30136;50.600;4.608;2022-07-10T03:51:50;27.00;58.40
44433;DHT22;30136;50.600;4.608;2022-07-10T03:52:51;27.90;58.90
44433;DHT22;30136;50.600;4.608;2022-07-10T03:53:52;27.00;58.30
44433;DHT22;30136;50.600;4.608;2022-07-10T03:54:54;27.40;58.70
44433;DHT22;30136;50.600;4.608;2022-07-10T03:55:55;27.10;58.40
44433;DHT22;30136;50.600;4.608;2022-07-10T03:56:56;27.30;58.50
44433;DHT22;30136;50.600;4.608;2022-07-10T03:58:16;27.20;58.40
44433;DHT22;30136;50.600;4.608;2022-07-10T03:59:17;26.80;58.20
44433;DHT22;30136;50.600;4.608;2022-07-10T04:00:18;27.40;58.60
44433;DHT22;30136;50.600;4.608;2022-07-10T04:01:19;27.10;58.40
44433;DHT22;30136;50.600;4.608;2022-07-10T04:02:20;27.90;58.80
44433;DHT22;30136;50.600;4.608;2022-07-10T04:03:21;26.80;58.20
44433;DHT22;30136;50.600;4.608;2022-07-10T04:04:21;27.50;58.70
44433;DHT22;30136;50.600;4.608;2022-07-10T04:05:22;27.50;58.60
44433;DHT22;30136;50.600;4.608;2022-07-10T04:06:24;27.60;58.60
44433;DHT22;30136;50.600;4.608;2022-07-10T04:07:25;27.50;58.70
44433;DHT22;30136;50.600;4.608;2022-07-10T04:08:26;26.90;58.30
44433;DHT22;30136;50.600;4.608;2022-07-10T04:09:26;27.80;58.90
44433;DHT22;30136;50.600;4.608;2022-07-10T04:10:28;27.50;58.80
44433;DHT22;30136;50.600;4.608;2022-07-10T04:11:30;27.20;58.50
44433;DHT22;30136;50.600;4.608;2022-07-10T04:12:31;27.90;58.90
44433;DHT22;30136;50.600;4.608;2022-07-10T04:13:32;26.90;58.40
44433;DHT22;30136;50.600;4.608;2022-07-10T04:14:32;26.80;58.40
44433;DHT22;30136;50.600;4.608;2022-07-10T04:15:33;27.10;58.50
44433;DHT22;30136;50.600;4.608;2022-07-10T04:16:34;26.90;58.40
44433;DHT22;30136;50.600;4.608;2022-07-10T04:17:35;27.80;58.90
44433;DHT22;30136;50.600;4.608;2022-07-10T04:18:35;27.00;58.30
44433;DHT22;30136;50.600;4.608;2022-07-10T04:19:36;27.20;58.50
44433;DHT22;30136;50.600;4.608;2022-07-10T04:20:37;27.80;58.80
44433;DHT22;30136;50.600;4.608;2022-07-10T04:21:38;27.00;58.30
44433;DHT22;30136;50.600;4.608;2022-07-10T04:22:39;27.70;58.70
44433;DHT22;30136;50.600;4.608;2022-07-10T04:23:40;26.90;58.10
44433;DHT22;30136;50.600;4.608;2022-07-10T04:24:41;26.90;58.00
44433;DHT22;30136;50.600;4.608;2022-07-10T04:25:41;27.30;58.20
44433;DHT22;30136;50.600;4.608;2022-07-10T04:26:43;26.80;58.10
44433;DHT22;30136;50.600;4.608;2022-07-10T04:27:44;27.30;58.40
44433;DHT22;30136;50.600;4.608;2022-07-10T04:28:45;27.80;58.60
44433;DHT22;30136;50.600;4.608;2022-07-10T04:29:47;27.00;58.10
44433;DHT22;30136;50.600;4.608;2022-07-10T04:30:48;26.80;58.00
44433;DHT22;30136;50.600;4.608;2022-07-10T04:31:48;26.80;58.10
44433;DHT22;30136;50.600;4.608;2022-07-10T04:32:49;27.50;58.50
44433;DHT22;30136;50.600;4.608;2022-07-10T04:33:50;27.30;58.40
44433;DHT22;30136;50.600;4.608;2022-07-10T04:34:51;27.10;58.20
44433;DHT22;30136;50.600;4.608;2022-07-10T04:35:52;27.00;58.20
44433;DHT22;30136;50.600;4.608;2022-07-10T04:36:53;26.80;58.20
44433;DHT22;30136;50.600;4.608;2022-07-10T04:37:54;27.70;58.70
44433;DHT22;30136;50.600;4.608;2022-07-10T04:38:55;27.20;58.20
44433;DHT22;30136;50.600;4.608;2022-07-10T04:39:55;27.10;58.20
44433;DHT22;30136;50.600;4.608;2022-07-10T04:40:56;27.40;58.50
44433;DHT22;30136;50.600;4.608;2022-07-10T04:41:57;27.20;58.50
44433;DHT22;30136;50.600;4.608;2022-07-10T04:42:58;26.90;58.20
44433;DHT22;30136;50.600;4.608;2022-07-10T04:43:58;27.40;58.40
44433;DHT22;30136;50.600;4.608;2022-07-10T04:44:59;26.80;58.00
44433;DHT22;30136;50.600;4.608;2022-07-10T04:46:00;27.00;58.20
44433;DHT22;30136;50.600;4.608;2022-07-10T04:47:01;26.80;58.00
44433;DHT22;30136;50.600;4.608;2022-07-10T04:48:04;27.30;58.40
44433;DHT22;30136;50.600;4.608;2022-07-10T04:49:05;27.20;58.30
44433;DHT22;30136;50.600;4.608;2022-07-10T04:50:07;27.50;58.50
44433;DHT22;30136;50.600;4.608;2022-07-10T04:51:08;27.30;58.40
44433;DHT22;30136;50.600;4.608;2022-07-10T04:52:09;27.40;58.60
44433;DHT22;30136;50.600;4.608;2022-07-10T04:53:10;26.90;58.30
44433;DHT22;30136;50.600;4.608;2022-07-10T04:54:11;26.80;58.10
44433;DHT22;30136;50.600;4.608;2022-07-10T04:55:12;27.40;58.60
44433;DHT22;30136;50.600;4.608;2022-07-10T04:56:13;27.10;58.50
44433;DHT22;30136;50.600;4.608;2022-07-10T04:57:13;27.20;58.70
44433;DHT22;30136;50.600;4.608;2022-07-10T04:58:14;27.10;58.50
44433;DHT22;30136;50.600;4.608;2022-07-10T04:59:15;27.20;58.60
44433;DHT22;30136;50.600;4.608;2022-07-10T05:00:16;27.10;58.50
44433;DHT22;30136;50.600;4.608;2022-07-10T05:01:17;27.60;58.90
44433;DHT22;30136;50.600;4.608;2022-07-10T05:02:18;27.10;58.50
44433;DHT22;30136;50.600;4.608;2022-07-10T05:03:19;26.60;58.20
44433;DHT22;30136;50.600;4.608;2022-07-10T05:04:20;27.40;58.80
44433;DHT22;30136;50.600;4.608;2022-07-10T05:05:21;27.00;58.40
44433;DHT22;30136;50.600;4.608;2022-07-10T05:06:22;27.30;58.70
44433;DHT22;30136;50.600;4.608;2022-07-10T05:07:22;27.40;58.90
44433;DHT22;30136;50.600;4.608;2022-07-10T05:08:24;27.10;58.70
44433;DHT22;30136;50.600;4.608;2022-07-10T05:09:24;27.30;58.80
44433;DHT22;30136;50.600;4.608;2022-07-10T05:10:25;26.70;58.40
44433;DHT22;30136;50.600;4.608;2022-07-10T05:11:27;26.80;58.50
44433;DHT22;30136;50.600;4.608;2022-07-10T05:12:28;26.90;58.60
44433;DHT22;30136;50.600;4.608;2022-07-10T05:13:29;27.00;58.80
44433;DHT22;30136;50.600;4.608;2022-07-10T05:14:30;27.40;58.90
44433;DHT22;30136;50.600;4.608;2022-07-10T05:15:31;26.70;58.60
44433;DHT22;30136;50.600;4.608;2022-07-10T05:16:35;27.20;59.00
44433;DHT22;30136;50.600;4.608;2022-07-10T05:17:36;27.00;58.80
44433;DHT22;30136;50.600;4.608;2022-07-10T05:18:37;27.20;58.90
44433;DHT22;30136;50.600;4.608;2022-07-10T05:19:38;27.60;59.20
44433;DHT22;30136;50.600;4.608;2022-07-10T05:20:38;26.80;58.70
44433;DHT22;30136;50.600;4.608;2022-07-10T05:21:43;26.70;58.60
44433;DHT22;30136;50.600;4.608;2022-07-10T05:22:43;27.40;59.10
44433;DHT22;30136;50.600;4.608;2022-07-10T05:23:44;26.80;58.80
44433;DHT22;30136;50.600;4.608;2022-07-10T05:24:45;27.00;58.80
44433;DHT22;30136;50.600;4.608;2022-07-10T05:25:46;26.80;58.70
44433;DHT22;30136;50.600;4.608;2022-07-10T05:26:47;27.20;59.10
44433;DHT22;30136;50.600;4.608;2022-07-10T05:27:48;27.20;59.00
44433;DHT22;30136;50.600;4.608;2022-07-10T05:28:48;27.40;59.20
44433;DHT22;30136;50.600;4.608;2022-07-10T05:29:49;27.70;59.30
44433;DHT22;30136;50.600;4.608;2022-07-10T05:30:50;26.70;58.70
44433;DHT22;30136;50.600;4.608;2022-07-10T05:31:51;26.60;57.40
44433;DHT22;30136;50.600;4.608;2022-07-10T05:32:52;27.00;58.50
44433;DHT22;30136;50.600;4.608;2022-07-10T05:33:53;27.00;59.10
44433;DHT22;30136;50.600;4.608;2022-07-10T05:34:54;27.60;59.40
44433;DHT22;30136;50.600;4.608;2022-07-10T05:35:58;27.10;59.20
44433;DHT22;30136;50.600;4.608;2022-07-10T05:36:58;26.80;59.00
44433;DHT22;30136;50.600;4.608;2022-07-10T05:37:59;27.40;59.40
44433;DHT22;30136;50.600;4.608;2022-07-10T05:39:00;27.40;58.90
44433;DHT22;30136;50.600;4.608;2022-07-10T05:40:02;27.00;57.10
44433;DHT22;30136;50.600;4.608;2022-07-10T05:41:03;27.70;57.90
44433;DHT22;30136;50.600;4.608;2022-07-10T05:42:04;26.80;57.50
44433;DHT22;30136;50.600;4.608;2022-07-10T05:43:05;27.50;58.10
44433;DHT22;30136;50.600;4.608;2022-07-10T05:44:06;27.20;58.10
44433;DHT22;30136;50.600;4.608;2022-07-10T05:45:07;27.00;58.00
44433;DHT22;30136;50.600;4.608;2022-07-10T05:46:08;26.90;58.00
44433;DHT22;30136;50.600;4.608;2022-07-10T05:47:09;27.50;58.50
44433;DHT22;30136;50.600;4.608;2022-07-10T05:48:10;27.30;58.30
44433;DHT22;30136;50.600;4.608;2022-07-10T05:49:11;26.80;58.10
44433;DHT22;30136;50.600;4.608;2022-07-10T05:50:12;26.70;58.10
44433;DHT22;30136;50.600;4.608;2022-07-10T05:51:13;26.80;58.10
44433;DHT22;30136;50.600;4.608;2022-07-10T05:52:13;27.50;58.50
44433;DHT22;30136;50.600;4.608;2022-07-10T05:53:14;27.20;58.50
44433;DHT22;30136;50.600;4.608;2022-07-10T05:54:15;26.80;58.20
44433;DHT22;30136;50.600;4.608;2022-07-10T05:55:16;27.50;58.60
44433;DHT22;30136;50.600;4.608;2022-07-10T05:56:17;26.70;58.20
44433;DHT22;30136;50.600;4.608;2022-07-10T05:57:18;26.70;58.30
44433;DHT22;30136;50.600;4.608;2022-07-10T05:58:19;27.00;58.50
44433;DHT22;30136;50.600;4.608;2022-07-10T05:59:20;27.30;58.80
44433;DHT22;30136;50.600;4.608;2022-07-10T06:00:21;27.10;58.60
44433;DHT22;30136;50.600;4.608;2022-07-10T06:01:22;26.80;58.50
44433;DHT22;30136;50.600;4.608;2022-07-10T06:02:24;27.20;58.70
44433;DHT22;30136;50.600;4.608;2022-07-10T06:03:25;27.40;59.00
44433;DHT22;30136;50.600;4.608;2022-07-10T06:04:26;27.40;59.00
44433;DHT22;30136;50.600;4.608;2022-07-10T06:05:27;26.80;58.70
44433;DHT22;30136;50.600;4.608;2022-07-10T06:06:28;27.60;59.20
44433;DHT22;30136;50.600;4.608;2022-07-10T06:07:29;26.60;58.50
44433;DHT22;30136;50.600;4.608;2022-07-10T06:08:29;26.90;58.70
44433;DHT22;30136;50.600;4.608;2022-07-10T06:09:30;27.40;59.20
44433;DHT22;30136;50.600;4.608;2022-07-10T06:10:31;27.60;59.10
44433;DHT22;30136;50.600;4.608;2022-07-10T06:11:32;27.20;58.80
44433;DHT22;30136;50.600;4.608;2022-07-10T06:12:33;27.30;59.10
44433;DHT22;30136;50.600;4.608;2022-07-10T06:13:34;27.50;59.10
44433;DHT22;30136;50.600;4.608;2022-07-10T06:14:35;27.00;58.80
44433;DHT22;30136;50.600;4.608;2022-07-10T06:15:36;27.80;59.30
44433;DHT22;30136;50.600;4.608;2022-07-10T06:16:37;27.20;58.90
44433;DHT22;30136;50.600;4.608;2022-07-10T06:17:37;26.70;58.80
44433;DHT22;30136;50.600;4.608;2022-07-10T06:18:38;26.80;58.90
44433;DHT22;30136;50.600;4.608;2022-07-10T06:19:39;27.20;59.10
44433;DHT22;30136;50.600;4.608;2022-07-10T06:20:40;27.00;58.90
44433;DHT22;30136;50.600;4.608;2022-07-10T06:21:41;26.80;58.80
44433;DHT22;30136;50.600;4.608;2022-07-10T06:22:41;27.40;59.30
44433;DHT22;30136;50.600;4.608;2022-07-10T06:23:42;27.20;59.10
44433;DHT22;30136;50.600;4.608;2022-07-10T06:24:43;26.70;58.80
44433;DHT22;30136;50.600;4.608;2022-07-10T06:25:44;26.60;58.70
44433;DHT22;30136;50.600;4.608;2022-07-10T06:26:45;27.20;59.30